Time;durP1;ratioP1;P1;durP2;ratioP2;P2;SDS_P1;SDS_P2;PMS_P1;PMS_P2;Temp;Humidity;BMP_temperature;BMP_pressure;BME280_temperature;BME280_humidity;BME280_pressure;Samples;Min_cycle;Max_cycle;Signal;HPM_P1;HPM_P2
2024/04/18 00:00:19;;;;;;;16.73;8.18;;;;;;;5.91;96.09;101589.69;5445890;26;20089;-56
2024/04/18 00:02:47;;;;;;;16.27;8.88;;;;;;;5.90;96.23;101591.66;5448927;26;20134;-56
2024/04/18 00:05:15;;;;;;;13.63;7.03;;;;;;;5.86;96.04;101593.34;5474260;26;20014;-58
2024/04/18 00:07:43;;;;;;;12.63;8.05;;;;;;;5.84;96.28;101600.22;5450607;26;20353;-58
2024/04/18 00:10:10;;;;;;;12.88;8.32;;;;;;;5.86;96.24;101592.50;5458275;26;20003;-57
2024/04/18 00:12:39;;;;;;;13.15;7.97;;;;;;;5.85;96.24;101596.41;5454983;26;20097;-60
2024/04/18 00:15:10;;;;;;;15.00;7.80;;;;;;;5.84;96.26;101605.69;5461267;26;20006;-58
2024/04/18 00:17:38;;;;;;;20.25;10.18;;;;;;;5.79;96.18;101609.34;5461322;26;20011;-60
2024/04/18 00:20:06;;;;;;;12.90;7.35;;;;;;;5.76;96.24;101611.84;5479107;26;20009;-56
2024/04/18 00:22:33;;;;;;;15.90;8.20;;;;;;;5.68;96.26;101615.22;5479390;26;20014;-59
2024/04/18 00:25:01;;;;;;;16.52;8.07;;;;;;;5.61;96.41;101607.34;5471771;26;20754;-58
2024/04/18 00:27:28;;;;;;;15.90;9.27;;;;;;;5.59;96.56;101608.75;5461385;26;20526;-58
2024/04/18 00:29:56;;;;;;;15.27;8.98;;;;;;;5.54;96.60;101617.84;5482825;26;20013;-57
2024/04/18 00:32:23;;;;;;;14.13;8.30;;;;;;;5.54;96.88;101618.66;5472006;26;20018;-58
2024/04/18 00:34:50;;;;;;;15.32;7.60;;;;;;;5.57;96.92;101630.16;5521253;25;20001;-58
2024/04/18 00:37:18;;;;;;;15.23;8.43;;;;;;;5.56;96.59;101626.59;5480906;25;19998;-60
2024/04/18 00:39:47;;;;;;;13.75;8.48;;;;;;;5.51;96.72;101618.41;5483737;26;20002;-56
2024/04/18 00:42:15;;;;;;;19.27;9.35;;;;;;;5.47;96.81;101617.38;5467687;26;20016;-58
2024/04/18 00:44:43;;;;;;;12.90;8.55;;;;;;;5.40;96.48;101622.41;5476443;26;20708;-60
2024/04/18 00:47:13;;;;;;;14.18;8.75;;;;;;;5.36;96.96;101619.41;5478445;26;20006;-56
2024/04/18 00:49:41;;;;;;;18.48;9.50;;;;;;;5.33;97.03;101628.22;5478770;26;20078;-56
2024/04/18 00:52:18;;;;;;;16.45;9.68;;;;;;;5.29;97.09;101631.81;5448537;26;20035;-57
2024/04/18 00:54:48;;;;;;;18.20;9.63;;;;;;;5.30;97.31;101633.44;5472658;26;20075;-58
2024/04/18 00:57:17;;;;;;;20.23;11.52;;;;;;;5.32;97.38;101640.28;5471694;26;20006;-58
2024/04/18 00:59:47;;;;;;;19.42;10.93;;;;;;;5.35;97.12;101641.63;5483437;26;20017;-58
2024/04/18 01:02:15;;;;;;;23.58;11.07;;;;;;;5.37;96.91;101633.94;5479535;26;20058;-56
2024/04/18 01:04:42;;;;;;;24.17;11.27;;;;;;;5.35;96.97;101633.41;5483691;26;20006;-58
2024/04/18 01:07:10;;;;;;;33.45;11.80;;;;;;;5.32;96.83;101626.56;5477677;26;20006;-58
2024/04/18 01:09:37;;;;;;;21.67;9.82;;;;;;;5.28;97.12;101616.44;5485301;26;20012;-59
2024/04/18 01:12:05;;;;;;;34.42;11.15;;;;;;;5.27;96.90;101607.38;5476509;26;20026;-58
2024/04/18 01:14:32;;;;;;;32.75;10.75;;;;;;;5.25;96.88;101615.09;5450948;26;20007;-58
2024/04/18 01:17:02;;;;;;;63.67;13.27;;;;;;;5.27;97.04;101609.34;5465796;26;20002;-56
2024/04/18 01:19:31;;;;;;;42.40;12.85;;;;;;;5.24;96.86;101607.97;5453307;26;20314;-57
2024/04/18 01:21:59;;;;;;;71.68;13.70;;;;;;;5.24;96.97;101612.66;5481119;26;20002;-58
2024/04/18 01:24:31;;;;;;;118.85;17.02;;;;;;;5.21;96.63;101614.06;5462702;26;20018;-58
2024/04/18 01:26:59;;;;;;;87.40;13.55;;;;;;;5.16;96.84;101611.34;5466772;26;20002;-58
2024/04/18 01:29:27;;;;;;;123.78;15.57;;;;;;;5.13;96.63;101611.09;5478506;26;20014;-57
2024/04/18 01:31:54;;;;;;;63.47;13.82;;;;;;;5.12;97.06;101610.28;5447739;26;20014;-56
2024/04/18 01:34:22;;;;;;;78.45;13.55;;;;;;;5.13;96.85;101605.63;5480561;26;20049;-55
2024/04/18 01:36:51;;;;;;;50.67;11.98;;;;;;;5.15;96.97;101617.13;5459563;26;20034;-56
2024/04/18 01:39:18;;;;;;;59.28;12.10;;;;;;;5.15;97.03;101608.88;5475388;26;20003;-56
2024/04/18 01:41:47;;;;;;;93.28;14.13;;;;;;;5.14;96.90;101613.56;5452019;26;20743;-57
2024/04/18 01:44:14;;;;;;;69.47;14.07;;;;;;;5.13;96.99;101605.63;5481941;26;20400;-56
2024/04/18 01:46:42;;;;;;;73.07;15.90;;;;;;;5.12;97.23;101596.56;5477873;26;20471;-56
2024/04/18 01:49:09;;;;;;;84.32;13.35;;;;;;;5.14;97.20;101602.56;5482448;26;20014;-53
2024/04/18 01:51:38;;;;;;;106.43;14.98;;;;;;;5.13;97.29;101600.94;5448995;25;20010;-54
2024/04/18 01:54:06;;;;;;;118.93;15.88;;;;;;;5.11;97.20;101602.34;5450310;26;20452;-56
2024/04/18 01:56:33;;;;;;;59.42;12.50;;;;;;;5.10;97.53;101600.69;5482270;26;20013;-54
2024/04/18 01:59:04;;;;;;;48.65;11.35;;;;;;;5.10;97.48;101604.28;5479344;26;20083;-59
2024/04/18 02:01:32;;;;;;;75.88;12.32;;;;;;;5.11;97.64;101608.63;5447936;26;20361;-54
2024/04/18 02:03:59;;;;;;;89.40;12.75;;;;;;;5.10;97.33;101607.00;5448937;26;20399;-56
2024/04/18 02:06:27;;;;;;;49.55;11.32;;;;;;;5.10;97.22;101595.22;5463590;26;20010;-56
2024/04/18 02:08:54;;;;;;;36.95;9.68;;;;;;;5.08;97.43;101589.19;5450665;26;20007;-51
2024/04/18 02:11:21;;;;;;;41.78;10.68;;;;;;;5.04;97.32;101585.38;5483162;26;20468;-53
2024/04/18 02:13:49;;;;;;;37.20;9.35;;;;;;;4.99;97.38;101597.22;5448005;26;21218;-57
2024/04/18 02:16:16;;;;;;;20.58;9.25;;;;;;;4.96;97.61;101589.56;5468712;26;20003;-56
2024/04/18 02:18:44;;;;;;;21.50;8.80;;;;;;;4.98;97.69;101600.28;5447845;26;20022;-57
2024/04/18 02:21:11;;;;;;;24.95;9.02;;;;;;;5.00;97.77;101601.63;5461341;26;19998;-54
2024/04/18 02:23:39;;;;;;;28.58;10.30;;;;;;;5.00;97.56;101612.59;5445958;26;20473;-57
2024/04/18 02:26:06;;;;;;;22.08;10.15;;;;;;;5.00;97.59;101618.09;5475746;26;20059;-51
2024/04/18 02:28:34;;;;;;;18.77;8.85;;;;;;;4.98;97.92;101614.78;5467568;26;20469;-57
2024/04/18 02:31:03;;;;;;;21.30;10.00;;;;;;;4.96;97.85;101617.00;5464631;26;20006;-55
2024/04/18 02:33:32;;;;;;;20.42;9.40;;;;;;;4.96;97.98;101603.28;5502766;26;20001;-57
2024/04/18 02:35:59;;;;;;;22.33;10.18;;;;;;;4.96;98.08;101605.19;5465270;26;20010;-59
2024/04/18 02:38:28;;;;;;;23.25;9.02;;;;;;;4.98;98.36;101605.75;5450166;26;20003;-58
2024/04/18 02:41:06;;;;;;;24.85;9.30;;;;;;;5.00;98.38;101607.09;5457613;26;20043;-57
2024/04/18 02:43:34;;;;;;;18.60;8.45;;;;;;;5.00;98.31;101618.09;5449967;26;20006;-56
2024/04/18 02:46:03;;;;;;;29.25;10.10;;;;;;;5.02;98.12;101624.09;5465248;26;20007;-57
2024/04/18 02:48:30;;;;;;;26.63;10.18;;;;;;;5.03;98.25;101628.47;5445435;26;20052;-57
2024/04/18 02:50:58;;;;;;;19.83;9.38;;;;;;;5.02;98.11;101617.78;5468427;26;20818;-59
2024/04/18 02:53:25;;;;;;;21.10;10.07;;;;;;;4.99;98.29;101610.13;5483908;26;20079;-57
2024/04/18 02:55:53;;;;;;;16.23;9.30;;;;;;;5.01;98.62;101622.44;5482410;26;20049;-57
2024/04/18 02:58:20;;;;;;;24.08;11.70;;;;;;;5.02;98.83;101626.84;5447634;26;20467;-57
2024/04/18 03:00:47;;;;;;;20.77;10.10;;;;;;;5.06;98.79;101636.13;5517394;21;20024;-54
2024/04/18 03:03:15;;;;;;;19.85;10.70;;;;;;;5.09;98.90;101643.78;5469395;26;20007;-56
2024/04/18 03:05:42;;;;;;;20.10;9.48;;;;;;;5.12;98.85;101636.91;5452910;26;20003;-56
2024/04/18 03:08:11;;;;;;;20.92;11.80;;;;;;;5.13;99.12;101631.16;5446067;26;20007;-53
2024/04/18 03:10:48;;;;;;;22.13;11.02;;;;;;;5.16;99.00;101622.34;5469113;26;20002;-55
2024/04/18 03:13:15;;;;;;;17.73;9.57;;;;;;;5.18;98.96;101619.28;5447702;26;20079;-55
2024/04/18 03:15:46;;;;;;;15.27;9.00;;;;;;;5.19;98.77;101621.75;5450208;26;20460;-55
2024/04/18 03:18:15;;;;;;;19.75;10.50;;;;;;;5.21;99.17;101622.28;5445906;26;20043;-56
2024/04/18 03:20:52;;;;;;;17.05;9.55;;;;;;;5.22;99.28;101623.91;5473859;26;20031;-56
2024/04/18 03:23:19;;;;;;;18.10;9.13;;;;;;;5.22;99.04;101615.69;5473771;26;20010;-57
2024/04/18 03:25:47;;;;;;;16.67;9.63;;;;;;;5.22;99.17;101618.41;5481228;26;20010;-56
2024/04/18 03:28:15;;;;;;;16.15;9.05;;;;;;;5.22;99.22;101621.16;5445754;26;20003;-56
2024/04/18 03:30:42;;;;;;;16.80;9.85;;;;;;;5.26;99.74;101633.22;5464369;26;20014;-55
2024/04/18 03:33:10;;;;;;;18.42;9.93;;;;;;;5.27;99.44;101634.84;5452552;26;20003;-56
2024/04/18 03:35:38;;;;;;;17.88;9.25;;;;;;;5.29;99.80;101631.81;5469728;26;19998;-56
2024/04/18 03:38:06;;;;;;;16.67;9.98;;;;;;;5.28;99.42;101627.44;5481483;26;20002;-51
2024/04/18 03:40:33;;;;;;;19.65;10.05;;;;;;;5.27;99.52;101634.84;5468544;26;20075;-52
2024/04/18 03:43:01;;;;;;;17.27;10.45;;;;;;;5.28;99.70;101631.00;5479361;26;20016;-55
2024/04/18 03:45:31;;;;;;;18.17;10.20;;;;;;;5.31;99.67;101635.94;5475173;26;20006;-56
2024/04/18 03:47:58;;;;;;;17.67;9.90;;;;;;;5.34;99.85;101632.59;5466636;26;20007;-53
2024/04/18 03:50:26;;;;;;;17.40;9.85;;;;;;;5.36;100.00;101637.78;5450593;26;20107;-58
2024/04/18 03:52:54;;;;;;;17.95;11.00;;;;;;;5.36;99.96;101635.88;5480854;26;20002;-54
2024/04/18 03:55:21;;;;;;;16.25;11.23;;;;;;;5.38;100.00;101636.41;5473618;26;20007;-54
2024/04/18 03:57:48;;;;;;;22.30;13.27;;;;;;;5.38;99.83;101632.81;5457447;26;20104;-56
2024/04/18 04:00:16;;;;;;;23.42;11.93;;;;;;;5.38;100.00;101630.06;5453972;26;20420;-56
2024/04/18 04:02:43;;;;;;;17.92;10.38;;;;;;;5.36;100.00;101638.63;5458402;26;20007;-55
2024/04/18 04:05:11;;;;;;;18.50;10.52;;;;;;;5.36;100.00;101644.13;5473514;26;20002;-53
2024/04/18 04:07:38;;;;;;;20.65;9.85;;;;;;;5.35;100.00;101644.38;5471655;26;20039;-56
2024/04/18 04:10:06;;;;;;;19.45;10.50;;;;;;;5.36;100.00;101644.13;5485395;26;20445;-53
2024/04/18 04:12:36;;;;;;;19.90;10.05;;;;;;;5.37;100.00;101656.75;5491607;25;20327;-58
2024/04/18 04:15:04;;;;;;;18.05;10.00;;;;;;;5.34;100.00;101651.81;5454189;26;20014;-58
2024/04/18 04:17:32;;;;;;;18.88;10.55;;;;;;;5.32;100.00;101636.75;5448544;26;19999;-55
2024/04/18 04:19:59;;;;;;;20.23;10.98;;;;;;;5.34;100.00;101635.34;5480488;26;20400;-54
2024/04/18 04:22:26;;;;;;;18.75;11.13;;;;;;;5.35;100.00;101636.97;5467752;26;20007;-57
2024/04/18 04:24:58;;;;;;;17.23;9.50;;;;;;;5.37;100.00;101626.53;5466967;26;20037;-57
2024/04/18 04:27:25;;;;;;;20.67;10.85;;;;;;;5.38;100.00;101630.06;5480604;26;20013;-55
2024/04/18 04:29:54;;;;;;;19.58;10.38;;;;;;;5.36;100.00;101624.06;5469859;26;20868;-59
2024/04/18 04:32:23;;;;;;;23.40;12.90;;;;;;;5.37;100.00;101615.56;5456726;26;20158;-56
2024/04/18 04:34:51;;;;;;;18.60;10.55;;;;;;;5.34;100.00;101615.31;5449914;26;20015;-55
2024/04/18 04:37:19;;;;;;;23.88;11.02;;;;;;;5.31;100.00;101613.13;5450534;26;20018;-57
2024/04/18 04:39:47;;;;;;;21.15;11.20;;;;;;;5.27;100.00;101615.63;5475715;26;20003;-56
2024/04/18 04:42:15;;;;;;;18.77;10.05;;;;;;;5.23;100.00;101617.31;5448536;26;20014;-56
2024/04/18 04:44:44;;;;;;;24.73;12.30;;;;;;;5.20;100.00;101617.06;5453221;26;20014;-57
2024/04/18 04:47:13;;;;;;;23.95;12.30;;;;;;;5.15;100.00;101615.19;5471419;26;20014;-54
2024/04/18 04:49:40;;;;;;;23.23;12.43;;;;;;;5.14;100.00;101616.28;5477564;26;20459;-54
2024/04/18 04:52:08;;;;;;;27.20;13.45;;;;;;;5.12;100.00;101621.25;5474115;26;20014;-57
2024/04/18 04:54:37;;;;;;;28.90;12.57;;;;;;;5.11;100.00;101629.78;5474393;26;20099;-57
2024/04/18 04:57:05;;;;;;;26.50;13.65;;;;;;;5.08;100.00;101625.69;5463277;26;20426;-55
2024/04/18 04:59:32;;;;;;;26.25;12.50;;;;;;;5.07;100.00;101635.03;5447732;26;20079;-56
2024/04/18 05:02:00;;;;;;;32.40;13.10;;;;;;;5.04;100.00;101635.59;5474918;26;20002;-54
2024/04/18 05:04:29;;;;;;;24.80;12.68;;;;;;;5.02;100.00;101637.00;5470769;26;20011;-56
2024/04/18 05:06:56;;;;;;;34.25;14.85;;;;;;;4.98;100.00;101636.72;5463318;26;20486;-56
2024/04/18 05:09:24;;;;;;;28.30;13.52;;;;;;;4.96;100.00;101638.94;5486142;26;20001;-57
2024/04/18 05:11:51;;;;;;;34.83;16.63;;;;;;;4.96;100.00;101647.19;5451525;25;20015;-56
2024/04/18 05:14:22;;;;;;;29.90;13.85;;;;;;;4.93;100.00;101642.25;5467359;26;20010;-57
2024/04/18 05:16:50;;;;;;;28.30;14.18;;;;;;;4.94;100.00;101638.44;5468063;26;20007;-55
2024/04/18 05:19:19;;;;;;;32.97;13.57;;;;;;;4.93;100.00;101645.84;5457456;26;20376;-56
2024/04/18 05:21:47;;;;;;;26.90;13.98;;;;;;;4.96;100.00;101643.63;5449159;26;20025;-55
2024/04/18 05:24:15;;;;;;;34.65;14.38;;;;;;;4.96;100.00;101649.94;5459456;26;20015;-56
2024/04/18 05:26:43;;;;;;;33.17;14.65;;;;;;;5.00;100.00;101647.44;5447149;26;20002;-56
2024/04/18 05:31:59;;;;;;;37.13;15.75;;;;;;;5.07;100.00;101645.19;5457687;26;20002;-55
2024/04/18 05:34:30;;;;;;;30.75;14.80;;;;;;;5.11;100.00;101638.81;5484026;26;20017;-58
2024/04/18 05:36:57;;;;;;;33.42;14.07;;;;;;;5.14;100.00;101642.91;5479924;26;20006;-55
2024/04/18 05:39:25;;;;;;;35.72;15.07;;;;;;;5.17;100.00;101651.41;5471702;26;20035;-56
2024/04/18 05:41:52;;;;;;;32.70;13.65;;;;;;;5.22;100.00;101647.78;5462812;26;20076;-56
2024/04/18 05:44:19;;;;;;;30.38;14.68;;;;;;;5.27;100.00;101647.78;5462491;26;20013;-56
2024/04/18 05:46:47;;;;;;;35.95;15.07;;;;;;;5.31;100.00;101646.91;5467251;26;20039;-56
2024/04/18 05:49:15;;;;;;;30.73;14.02;;;;;;;5.37;100.00;101666.91;5459768;26;20002;-59
2024/04/18 05:51:43;;;;;;;27.75;12.57;;;;;;;5.40;100.00;101653.41;5448133;26;20046;-57
2024/04/18 05:54:11;;;;;;;29.60;14.52;;;;;;;5.45;100.00;101664.34;5457891;26;20321;-56
2024/04/18 05:56:39;;;;;;;27.80;14.45;;;;;;;5.49;100.00;101645.34;5460088;26;20078;-57
2024/04/18 05:59:06;;;;;;;28.77;13.20;;;;;;;5.50;100.00;101655.25;5447849;26;20009;-55
2024/04/18 06:01:33;;;;;;;30.30;13.48;;;;;;;5.51;100.00;101645.88;5455435;26;20337;-56
2024/04/18 06:04:02;;;;;;;28.90;15.35;;;;;;;5.51;100.00;101649.44;5452805;26;20003;-56
2024/04/18 06:06:30;;;;;;;27.92;13.20;;;;;;;5.53;100.00;101647.22;5454013;26;20603;-56
2024/04/18 06:08:57;;;;;;;31.48;14.18;;;;;;;5.56;100.00;101651.31;5470363;26;20021;-55
2024/04/18 06:11:42;;;;;;;28.75;14.10;;;;;;;5.62;100.00;101646.59;5494116;26;20351;-56
2024/04/18 06:14:10;;;;;;;33.55;13.25;;;;;;;5.69;100.00;101649.84;5469647;26;20013;-56
2024/04/18 06:16:38;;;;;;;33.45;14.30;;;;;;;5.76;100.00;101647.56;5465701;26;20013;-50
2024/04/18 06:19:05;;;;;;;32.95;14.68;;;;;;;5.84;100.00;101655.16;5468936;26;20079;-54
2024/04/18 06:21:33;;;;;;;35.92;15.18;;;;;;;5.92;100.00;101649.88;5494825;26;20324;-55
2024/04/18 06:24:00;;;;;;;31.13;14.15;;;;;;;5.99;100.00;101650.34;5497016;26;20001;-57
2024/04/18 06:26:27;;;;;;;26.52;11.63;;;;;;;6.07;100.00;101665.38;5446394;26;20015;-56
2024/04/18 06:28:58;;;;;;;28.42;13.27;;;;;;;6.14;100.00;101666.66;5470326;26;20461;-54
2024/04/18 06:31:25;;;;;;;26.35;12.25;;;;;;;6.23;100.00;101655.84;5471363;26;19999;-54
2024/04/18 06:33:53;;;;;;;24.98;12.32;;;;;;;6.31;100.00;101649.69;5447014;26;20015;-55
2024/04/18 06:36:20;;;;;;;21.20;10.13;;;;;;;6.40;100.00;101650.69;5479616;26;20012;-58
2024/04/18 06:38:48;;;;;;;22.48;11.52;;;;;;;6.46;100.00;101652.22;5481107;26;20078;-54
2024/04/18 06:41:15;;;;;;;23.92;10.55;;;;;;;6.49;100.00;101651.63;5482508;26;20010;-57
2024/04/18 06:43:43;;;;;;;25.33;12.60;;;;;;;6.53;100.00;101658.19;5480016;26;20014;-55
2024/04/18 06:46:10;;;;;;;21.55;11.02;;;;;;;6.58;100.00;101657.31;5462149;26;20096;-55
2024/04/18 06:48:38;;;;;;;20.25;10.73;;;;;;;6.61;100.00;101646.53;5465277;26;20503;-53
2024/04/18 06:51:06;;;;;;;18.95;9.88;;;;;;;6.63;100.00;101647.03;5469656;26;20042;-56
2024/04/18 06:53:34;;;;;;;20.92;10.32;;;;;;;6.68;100.00;101638.72;5481672;26;20020;-56
2024/04/18 06:56:01;;;;;;;18.65;9.35;;;;;;;6.74;100.00;101639.47;5464831;26;20010;-53
2024/04/18 06:58:29;;;;;;;20.65;9.50;;;;;;;6.78;100.00;101639.69;5449971;26;20007;-54
2024/04/18 07:00:56;;;;;;;22.73;9.48;;;;;;;6.80;100.00;101638.28;5459889;26;20945;-56
2024/04/18 07:03:24;;;;;;;22.20;9.20;;;;;;;6.83;100.00;101634.91;5458156;26;20017;-58
2024/04/18 07:05:52;;;;;;;19.83;9.63;;;;;;;6.86;100.00;101628.81;5477935;26;20532;-52
2024/04/18 07:08:19;;;;;;;18.90;10.85;;;;;;;6.89;100.00;101627.38;5449669;26;20082;-53
2024/04/18 07:10:47;;;;;;;18.38;9.90;;;;;;;6.95;100.00;101642.72;5460722;26;20404;-55
2024/04/18 07:13:14;;;;;;;20.77;9.48;;;;;;;6.99;100.00;101641.03;5473150;26;20010;-56
2024/04/18 07:15:42;;;;;;;17.20;10.07;;;;;;;7.06;100.00;101638.69;5469872;26;20006;-54
2024/04/18 07:18:09;;;;;;;19.30;10.23;;;;;;;7.14;100.00;101640.75;5478230;26;20021;-57
2024/04/18 07:20:37;;;;;;;20.88;10.25;;;;;;;7.19;100.00;101646.19;5461092;26;20007;-59
2024/04/18 07:23:05;;;;;;;20.73;10.10;;;;;;;7.24;100.00;101646.09;5463285;26;20410;-56
2024/04/18 07:25:32;;;;;;;18.95;9.80;;;;;;;7.30;100.00;101654.00;5475303;26;20071;-55
2024/04/18 07:28:00;;;;;;;18.63;8.73;;;;;;;7.36;100.00;101655.53;5464018;26;20039;-55
2024/04/18 07:30:27;;;;;;;18.92;10.48;;;;;;;7.41;100.00;101656.56;5435982;26;19999;-56
2024/04/18 07:32:55;;;;;;;15.35;8.77;;;;;;;7.44;100.00;101656.75;5477548;26;20483;-56
2024/04/18 07:35:23;;;;;;;19.83;10.32;;;;;;;7.47;100.00;101655.34;5477874;26;20002;-54
2024/04/18 07:37:55;;;;;;;19.92;9.45;;;;;;;7.47;100.00;101655.34;5467901;26;20402;-58
2024/04/18 07:40:23;;;;;;;18.15;10.05;;;;;;;7.51;100.00;101659.97;5452772;26;20002;-59
2024/04/18 07:42:50;;;;;;;18.00;10.73;;;;;;;7.58;100.00;101657.63;5476246;26;20047;-55
2024/04/18 07:45:18;;;;;;;19.73;10.75;;;;;;;7.63;100.00;101659.47;5477957;26;20014;-57
2024/04/18 07:47:46;;;;;;;21.33;11.50;;;;;;;7.68;100.00;101646.41;5467140;26;20021;-60
2024/04/18 07:50:14;;;;;;;20.17;9.85;;;;;;;7.71;100.00;101656.81;5475268;26;20067;-54
2024/04/18 07:52:42;;;;;;;22.73;12.07;;;;;;;7.75;100.00;101648.78;5464970;26;20047;-56
2024/04/18 07:55:23;;;;;;;22.63;9.75;;;;;;;7.75;100.00;101651.53;5451424;26;20010;-58
2024/04/18 07:57:51;;;;;;;22.35;10.30;;;;;;;7.74;100.00;101645.19;5477766;26;20002;-57
2024/04/18 08:00:19;;;;;;;22.90;11.48;;;;;;;7.72;100.00;101647.44;5469786;26;20685;-58
2024/04/18 08:02:49;;;;;;;23.00;10.70;;;;;;;7.69;100.00;101642.53;5476518;26;20020;-58
2024/04/18 08:05:19;;;;;;;20.48;10.32;;;;;;;7.66;100.00;101650.59;5474569;26;20083;-57
2024/04/18 08:07:52;;;;;;;23.55;11.07;;;;;;;7.59;100.00;101641.91;5473387;26;20771;-58
2024/04/18 08:10:24;;;;;;;27.10;14.00;;;;;;;7.55;100.00;101633.41;5460460;26;20042;-55
2024/04/18 08:13:03;;;;;;;24.00;12.35;;;;;;;7.57;100.00;101636.69;5477416;26;20006;-57
2024/04/18 08:15:39;;;;;;;27.45;12.63;;;;;;;7.58;100.00;101640.25;5458522;26;20002;-57
2024/04/18 08:18:10;;;;;;;25.15;10.63;;;;;;;7.59;100.00;101637.22;5478872;26;20025;-56
2024/04/18 08:20:39;;;;;;;22.02;11.68;;;;;;;7.62;100.00;101647.63;5476078;26;20017;-57
2024/04/18 08:23:06;;;;;;;22.20;11.93;;;;;;;7.64;100.00;101645.38;5475733;26;20077;-59
2024/04/18 08:25:34;;;;;;;23.02;10.55;;;;;;;7.67;100.00;101650.31;5470477;26;20006;-59
2024/04/18 08:28:03;;;;;;;26.00;11.95;;;;;;;7.68;100.00;101646.41;5465305;26;20005;-57
2024/04/18 08:30:31;;;;;;;24.00;11.82;;;;;;;7.73;100.00;101657.34;5469811;26;20087;-59
2024/04/18 08:32:59;;;;;;;26.92;10.90;;;;;;;7.79;100.00;101642.34;5447645;26;20015;-59
2024/04/18 08:35:27;;;;;;;23.60;11.88;;;;;;;7.87;100.00;101636.13;5461174;26;20321;-58
2024/04/18 08:37:54;;;;;;;29.20;12.13;;;;;;;7.97;100.00;101640.59;5467941;26;20003;-57
2024/04/18 08:40:21;;;;;;;24.38;12.05;;;;;;;8.09;100.00;101637.34;5474050;26;20020;-57
2024/04/18 08:42:49;;;;;;;23.38;10.85;;;;;;;8.17;100.00;101631.94;5449430;26;20042;-61
2024/04/18 08:45:22;;;;;;;23.15;12.07;;;;;;;8.25;100.00;101638.69;5474510;26;20038;-57
2024/04/18 08:47:51;;;;;;;21.42;11.57;;;;;;;8.28;100.00;101638.09;5473107;26;20030;-57
2024/04/18 08:50:22;;;;;;;20.13;10.25;;;;;;;8.32;100.00;101631.66;5454511;26;20006;-60
2024/04/18 08:52:52;;;;;;;20.58;10.13;;;;;;;8.34;100.00;101639.63;5459761;26;20018;-57
2024/04/18 08:55:21;;;;;;;20.80;11.48;;;;;;;8.29;100.00;101634.19;5478784;26;20083;-59
2024/04/18 08:57:52;;;;;;;19.80;9.70;;;;;;;8.27;100.00;101622.66;5469252;26;19999;-57
2024/04/18 09:00:19;;;;;;;18.77;9.98;;;;;;;8.27;100.00;101622.66;5470703;26;19998;-59
2024/04/18 09:02:48;;;;;;;15.57;8.85;;;;;;;8.32;100.00;101628.06;5479360;26;20478;-56
2024/04/18 09:05:16;;;;;;;20.35;8.77;;;;;;;8.36;100.00;101612.53;5466225;26;20014;-58
2024/04/18 09:07:43;;;;;;;18.80;9.40;;;;;;;8.41;100.00;101618.75;5470027;26;20052;-57
2024/04/18 09:10:11;;;;;;;13.10;8.05;;;;;;;8.44;100.00;101618.16;5475126;26;20010;-58
2024/04/18 09:12:38;;;;;;;14.48;7.95;;;;;;;8.49;100.00;101611.69;5475924;26;20018;-58
2024/04/18 09:15:06;;;;;;;15.45;7.95;;;;;;;8.55;100.00;101621.50;5476775;26;20010;-57
2024/04/18 09:17:33;;;;;;;17.13;7.85;;;;;;;8.63;100.00;101606.94;5469416;26;20511;-56
2024/04/18 09:20:01;;;;;;;13.32;7.40;;;;;;;8.77;100.00;101620.69;5474124;26;20060;-58
2024/04/18 09:22:29;;;;;;;11.27;6.57;;;;;;;8.88;100.00;101619.34;5477205;26;20002;-55
2024/04/18 09:24:56;;;;;;;9.10;5.05;;;;;;;8.96;100.00;101616.66;5477163;26;20014;-57
2024/04/18 09:27:24;;;;;;;11.60;5.80;;;;;;;9.02;100.00;101620.94;5477106;26;20010;-57
2024/04/18 09:29:51;;;;;;;10.10;6.00;;;;;;;9.05;100.00;101611.19;5475032;26;20049;-58
2024/04/18 09:32:19;;;;;;;9.48;5.10;;;;;;;9.02;100.00;101609.88;5478183;26;20029;-60
2024/04/18 09:34:51;;;;;;;7.43;4.75;;;;;;;8.99;100.00;101610.50;5485570;26;20006;-59
2024/04/18 09:37:20;;;;;;;10.32;5.38;;;;;;;8.94;100.00;101607.06;5468733;26;20114;-59
2024/04/18 09:39:52;;;;;;;8.82;4.50;;;;;;;8.94;100.00;101613.41;5480412;26;20030;-60
2024/04/18 09:42:40;;;;;;;12.55;5.15;;;;;;;8.95;100.00;101601.19;5476589;26;20002;-60
2024/04/18 09:45:14;;;;;;;9.45;4.30;;;;;;;8.93;100.00;101594.34;5480750;26;20006;-57
2024/04/18 09:47:44;;;;;;;9.15;4.55;;;;;;;8.90;100.00;101600.50;5481416;26;20367;-59
2024/04/18 09:50:14;;;;;;;5.90;4.28;;;;;;;8.92;100.00;101584.47;5483591;26;19998;-60
2024/04/18 09:52:44;;;;;;;5.53;4.25;;;;;;;9.00;100.00;101584.50;5472995;26;20002;-60
2024/04/18 09:55:16;;;;;;;14.80;6.00;;;;;;;9.16;100.00;101577.47;5468473;26;20017;-60
2024/04/18 09:57:44;;;;;;;8.27;3.97;;;;;;;9.33;100.00;101582.28;5467729;26;20018;-60
2024/04/18 10:00:14;;;;;;;6.70;3.90;;;;;;;9.52;100.00;101579.28;5465721;26;20010;-60
2024/04/18 10:02:42;;;;;;;6.22;4.20;;;;;;;9.66;100.00;101583.56;5477373;26;20038;-60
2024/04/18 10:05:10;;;;;;;7.05;4.32;;;;;;;9.79;100.00;101582.66;5469291;26;20005;-61
2024/04/18 10:07:38;;;;;;;10.07;3.33;;;;;;;9.96;100.00;101576.38;5475412;26;20055;-61
2024/04/18 10:10:07;;;;;;;7.40;3.28;;;;;;;10.03;100.00;101570.38;5481239;26;20002;-60
2024/04/18 10:12:35;;;;;;;16.13;5.50;;;;;;;9.95;100.00;101577.53;5468254;26;20078;-61
2024/04/18 10:15:03;;;;;;;11.45;3.05;;;;;;;9.89;100.00;101570.50;5474657;26;20353;-60
2024/04/18 10:17:32;;;;;;;10.38;3.03;;;;;;;9.89;100.00;101555.84;5463320;26;20065;-60
2024/04/18 10:20:05;;;;;;;7.65;3.85;;;;;;;9.97;100.00;101563.38;5469100;26;19998;-61
2024/04/18 10:22:35;;;;;;;5.85;2.47;;;;;;;10.14;100.00;101567.00;5473351;26;19998;-61
2024/04/18 10:25:19;;;;;;;5.15;1.98;;;;;;;10.26;100.00;101561.69;5468481;26;20453;-60
2024/04/18 10:27:46;;;;;;;10.52;2.20;;;;;;;10.31;100.00;101552.41;5481080;26;20336;-61
2024/04/18 10:30:18;;;;;;;6.05;2.00;;;;;;;10.31;100.00;101558.75;5480726;26;20086;-60
2024/04/18 10:32:48;;;;;;;5.18;2.08;;;;;;;10.25;100.00;101548.97;5468659;26;20476;-60
2024/04/18 10:35:17;;;;;;;2.90;1.42;;;;;;;10.21;100.00;101547.19;5472093;26;20012;-59
2024/04/18 10:37:51;;;;;;;4.70;2.08;;;;;;;10.15;100.00;101552.06;5479003;26;20002;-61
2024/04/18 10:40:18;;;;;;;3.53;1.50;;;;;;;10.09;100.00;101561.59;5447554;26;20020;-60
2024/04/18 10:42:46;;;;;;;6.47;2.42;;;;;;;10.10;100.00;101557.72;5470926;26;20456;-60
2024/04/18 10:45:15;;;;;;;5.20;2.35;;;;;;;10.10;100.00;101543.88;5477989;26;20028;-60
2024/04/18 10:47:48;;;;;;;5.20;2.03;;;;;;;10.12;100.00;101549.94;5468997;26;20002;-61
2024/04/18 10:50:15;;;;;;;8.90;2.45;;;;;;;10.08;100.00;101537.84;5473912;26;20010;-61
2024/04/18 10:52:43;;;;;;;4.10;1.92;;;;;;;10.06;100.00;101536.56;5464099;26;20002;-61
2024/04/18 10:55:10;;;;;;;3.03;1.35;;;;;;;10.06;100.00;101534.56;5472341;26;20013;-60
2024/04/18 10:57:38;;;;;;;9.18;1.77;;;;;;;10.08;100.00;101543.41;5460743;26;20002;-61
2024/04/18 11:00:06;;;;;;;7.75;1.63;;;;;;;10.09;100.00;101549.72;5474396;26;20020;-60
2024/04/18 11:02:35;;;;;;;4.30;1.40;;;;;;;10.08;100.00;101535.09;5470111;26;20029;-61
2024/04/18 11:05:02;;;;;;;2.58;1.33;;;;;;;10.12;100.00;101544.41;5473854;26;20016;-60
2024/04/18 11:07:30;;;;;;;6.22;1.20;;;;;;;10.13;100.00;101540.50;5477699;26;19998;-61
2024/04/18 11:09:57;;;;;;;10.65;1.52;;;;;;;10.12;100.00;101555.47;5476035;26;20007;-61
2024/04/18 11:12:25;;;;;;;7.68;1.23;;;;;;;10.12;100.00;101532.47;5468730;26;20002;-60
2024/04/18 11:14:53;;;;;;;2.88;1.20;;;;;;;10.18;100.00;101534.81;5479439;26;20002;-60
2024/04/18 11:17:20;;;;;;;4.68;1.05;;;;;;;10.25;100.00;101526.84;5472341;26;20530;-62
2024/04/18 11:19:48;;;;;;;7.00;1.08;;;;;;;10.33;100.00;101523.25;5462330;26;20028;-61
2024/04/18 11:22:16;;;;;;;4.63;0.80;;;;;;;10.38;99.72;101536.94;5478932;26;20014;-61
2024/04/18 11:24:44;;;;;;;5.13;0.88;;;;;;;10.42;99.02;101525.22;5473733;26;20002;-61